Clackamas, OR

10:05 AM PDT on August 29, 2015 (GMT -0700)
Southern Ridge Neighborhood | | Change Station
CLOSE
Current Station
Personal Weather Station
Location: Happy Valley, OR
Elevation: 640 ft
Nearby Weather Stations
Active Advisory: Wind Advisory

Elev 640 ft 45.43 °N, 122.51 °W | Updated 29 seconds ago

Overcast
Overcast
67.8 °F
Feels Like 67.8 °F
N
8.1
Wind Variable Wind from WSW
Gusts 9.8 mph

Today
High -- | Low -- °F
--% Chance of Precip.
Yesterday
High -- | Low -- °F
Precip. -- in
6:27 AM 7:53 PM
Full, 100% visible
Pressure 29.74 in
Visibility 10.0 miles
Clouds Few 4700 ft
Mostly Cloudy 7500 ft
Dew Point 51 °F
Humidity 55%
Rainfall 0.18 in
Snow Depth Not available.
UV 2.0 out of 12
Pollen .20 out of 12
Air Quality Not available.
Flu Activity Not available.
METAR KTTD 291653Z 21014G27KT 10SM FEW047 BKN075 22/11 A2974 RMK AO2 PK WND 17033/1603 SLP069 T02220106
Pressure 29.74 in
Visibility 10.0 miles
Clouds Few 4700 ft
Mostly Cloudy 7500 ft
Dew Point 51 °F
Humidity 55%
Rainfall 0.18 in
Snow Depth Not available.
UV 2.0 out of 12
Pollen .20 out of 12
Air Quality Not available.
Flu Activity Not available.
METAR KTTD 291653Z 21014G27KT 10SM FEW047 BKN075 22/11 A2974 RMK AO2 PK WND 17033/1603 SLP069 T02220106

10-Day Weather Forecast

×

Almanac

Astronomy

Aug. 29, 2015 Rise Set
Actual Time
Civil Twilight
Nautical Twilight
Astronomical Twilight
Moon
Length of Visible Light
Length of Day
Tomorrow will be .
, % of the Moon is Illuminated

Today's Extremes

State Highs State Lows

Community

WunderPhotos

Upload Photos

1,850,724 photos uploaded!

WunderBlogs® & News

Nearby

Air Quality

  Air Quality AQ Index Pollutant
Not available.

Snow Depth

Station Depth Elevation

Earthquake Activity

City Distance Mag. Time & Date
Minimum magnitude displayed is 2.5.

Coastal Water Temperatures

Place Temperature

Stations

Nearby Weather Stations

Station Location Temp. Windchill Dew Point Humidity Wind Precip. Elev Updated Type
                   
Wind Advisory
Statement as of 3:42 AM PDT on August 29, 2015

... Wind Advisory remains in effect from 8 am this morning to 3 PM
PDT this afternoon for the northern Willamette and lower Columbia River
valley...

* winds: south winds 15 to 30 mph with gusts 35 to 50 mph.

* Timing: 8 am to 3 PM Saturday... strongest between 8 am and
noon.

* Locations include: Hillsboro... Portland... Oregon City...
Gresham... St. Helens... Vancouver... Battle Ground...
Washougal... Longview... Kelso.

* Impacts: with a full set of leaves on trees... these winds
could cause tree damage and local power disruptions. These
winds could cause problems for outdoor events... especially
those with temporary outdoor facilities such as tents and
canopies.

Precautionary/preparedness actions...

A Wind Advisory is issued when winds may cause minor property
damage without extra precautions. Motorists in high profile
vehicles should use caution until the winds subside.